Flight Track Log - Related Links

Times and Time Zones

All times are in EDT time to prevent confusion due to time zone crossing. See the CPT7773 flight status page for this flight to view local times or setup timezone preferences in your user account.

Time Position Orientation Groundspeed Altitude Reporting Facility
EDT Latitude Longitude Course Direction KTS MPH feet Rate Location/Type
Tue 08:09:39 PM 44.5150 -108.9364 99° East 115 132 7,000  Level Salt Lake Center
Tue 08:10:41 PM 44.5097 -108.8900 99° East 119 137 7,800 774 Climbing Salt Lake Center
Tue 08:11:43 PM 44.5031 -108.8456 102° East 118 136 8,600 774 Climbing Salt Lake Center
Tue 08:12:45 PM 44.4969 -108.8000 101° East 119 137 9,400 774 Climbing Salt Lake Center
Tue 08:13:47 PM 44.4886 -108.7556 105° East 119 137 10,200 726 Climbing Salt Lake Center
Tue 08:14:49 PM 44.4639 -108.7211 135° Southeast 120 138 10,900 387 Climbing Salt Lake Center
Tue 08:15:51 PM 44.4339 -108.6753 133° Southeast 126 145 11,000 48 Climbing Salt Lake Center
Tue 08:16:53 PM 44.4050 -108.6300 132° Southeast 139 160 11,000  Level Salt Lake Center
Tue 08:17:55 PM 44.3769 -108.5850 131° Southeast 147 169 11,000 48 Level Salt Lake Center
Tue 08:18:57 PM 44.3492 -108.5408 131° Southeast 151 174 11,100 48 Climbing Salt Lake Center
Tue 08:19:59 PM 44.3211 -108.4986 133° Southeast 150 173 11,100  Level Salt Lake Center
Tue 08:21:01 PM 44.2922 -108.4542 132° Southeast 152 175 11,100 -48 Level Salt Lake Center
Tue 08:22:03 PM 44.2578 -108.4006 132° Southeast 154 177 11,000 -48 Descending Salt Lake Center
Tue 08:23:05 PM 44.2303 -108.3558 131° Southeast 153 176 11,000  Level Salt Lake Center
Tue 08:24:07 PM 44.2028 -108.3136 132° Southeast 152 175 11,000 48 Level Salt Lake Center
Tue 08:25:09 PM 44.1758 -108.2719 132° Southeast 149 171 11,100  Climbing Salt Lake Center
Tue 08:26:11 PM 44.1469 -108.2300 134° Southeast 148 170 11,000  Descending Salt Lake Center
Tue 08:27:13 PM 44.1175 -108.1869 134° Southeast 151 174 11,100 48 Climbing Salt Lake Center
Tue 08:28:15 PM 44.0811 -108.1336 134° Southeast 155 178 11,100  Level Salt Lake Center
Tue 08:29:17 PM 44.0533 -108.0903 132° Southeast 154 177 11,100  Level Salt Lake Center
Tue 08:30:19 PM 44.0264 -108.0469 131° Southeast 151 174 11,100 -97 Level Salt Lake Center
Tue 08:31:21 PM 43.9975 -108.0039 133° Southeast 152 175 10,900 -48 Descending Salt Lake Center
Tue 08:32:23 PM 43.9689 -107.9617 133° Southeast 151 174 11,000 48 Climbing Salt Lake Center
Tue 08:33:25 PM 43.9378 -107.9072 128° Southeast 151 174 11,000  Level Salt Lake Center
Tue 08:34:27 PM 43.9156 -107.8569 122° Southeast 150 173 11,000  Level Salt Lake Center
Tue 08:35:29 PM 43.8903 -107.8069 125° Southeast 154 177 11,000  Level Salt Lake Center
Tue 08:36:31 PM 43.8661 -107.7600 126° Southeast 153 176 11,000  Level Salt Lake Center
Tue 08:37:33 PM 43.8419 -107.7128 125° Southeast 152 175 11,000  Level Salt Lake Center
Tue 08:38:35 PM 43.8153 -107.6644 127° Southeast 154 177 11,000  Level Salt Lake Center
Tue 08:39:37 PM 43.7825 -107.6042 127° Southeast 159 183 11,000  Level Salt Lake Center
Tue 08:40:39 PM 43.7564 -107.5525 125° Southeast 162 186 11,000  Level Salt Lake Center
Tue 08:41:40 PM 43.7311 -107.5022 125° Southeast 161 185 11,000  Level Salt Lake Center
Tue 08:42:42 PM 43.7056 -107.4525 125° Southeast 160 184 11,000  Level Salt Lake Center
Tue 08:43:44 PM 43.6803 -107.4039 126° Southeast 158 182 11,000  Level Salt Lake Center
Tue 08:44:46 PM 43.6547 -107.3539 125° Southeast 159 183 11,000  Level Salt Lake Center
Tue 08:45:48 PM 43.6247 -107.2936 124° Southeast 159 183 11,000  Level Salt Lake Center
Tue 08:46:50 PM 43.6000 -107.2467 126° Southeast 156 180 11,000  Level Salt Lake Center
Tue 08:47:52 PM 43.5750 -107.1975 125° Southeast 156 180 11,000  Level Salt Lake Center
Tue 08:48:54 PM 43.5492 -107.1486 126° Southeast 157 181 11,000  Level Salt Lake Center
Tue 08:49:56 PM 43.5231 -107.0997 126° Southeast 158 182 11,000  Level Salt Lake Center
Tue 08:50:57 PM 43.4972 -107.0506 126° Southeast 158 182 11,000  Level Salt Lake Center
Tue 08:51:59 PM 43.4700 -107.0003 127° Southeast 161 185 11,000 48 Level Salt Lake Center
Tue 08:53:01 PM 43.4389 -106.9386 125° Southeast 163 188 11,100 48 Climbing Salt Lake Center
Tue 08:54:03 PM 43.4142 -106.8939 127° Southeast 164 189 11,100  Level Salt Lake Center
Tue 08:55:05 PM 43.3853 -106.8369 125° Southeast 164 189 11,100 -48 Level Salt Lake Center
Tue 08:56:07 PM 43.3592 -106.7881 126° Southeast 165 190 11,000 -341 Descending Salt Lake Center
Tue 08:57:08 PM 43.3200 -106.7522 146° Southeast 152 175 10,400 -488 Descending Salt Lake Center
Tue 08:58:10 PM 43.2817 -106.7264 154° Southeast 156 180 10,000 -387 Descending Salt Lake Center
Tue 08:59:12 PM 43.2419 -106.6953 150° Southeast 151 174 9,600 -532 Descending Salt Lake Center
Tue 09:00:14 PM 43.2089 -106.6675 149° Southeast 147 169 8,900 -726 Descending Salt Lake Center
Tue 09:01:16 PM 43.1675 -106.6367 151° Southeast 149 171 8,100 -453 Descending Salt Lake Center
Tue 09:02:00 PM 43.1383 -106.6150 152° Southeast 151 174 8,100  Level Denver Center
Tue 09:03:00 PM 43.1001 -106.5899 154° Southeast  Level Estimated
Tue 09:10:00 PM 42.9080 -106.4644 154° Southeast  Level Estimated

Login

Don't have an account? Register now (free) for customized features, flight alerts, and more!